KSMQ

Somerset Airport

Somerville, New Jersey, USA
METAR KSMQ 280053Z AUTO VRB04KT 8SM BKN013 OVC018 15/14 A3005 RMK AO2 SLP175 T01500139
Observed Flight Rules
May-28 @ 00:53 UTC (16 minutes ago) Marginal Visual Flight Rules
Wind Visibility Clouds
Variable at 4 knots 8 miles
  • Broken at 1,300' AGL
  • Overcast at 1,800' AGL
Temperatures Readings
Current 15°C / 59°F
Dewpoint 14°C / 57°F
Humidity 94%
Altimeter 30.05" Hg
Pressure 1017.5 hPa
Elevation 30
METAR KSMQ 280053Z AUTO VRB04KT 8SM BKN013 OVC018 15/14 A3005 RMK AO2 SLP175 T01500139
Observed Flight Rules
May-28 @ 00:53 UTC
(16 minutes ago)
MVFR
Wind Visibility
Variable at 4 knots 8 miles
Clouds
  • Broken at 1,300' AGL
  • Overcast at 1,800' AGL
Temperature Dewpoint
15°C / 59°F 14°C / 57°F
Humidity Altimeter Pressure
94% 30.05" Hg 1017.5 hPa